Hogtown, Indiana
Current Conditions -  °F | °C
As of 6:55 AM on Thursday 27 Nov 2014 (Local Time) from KHNB Reporting Station
Overcast Overcast  
Wind Chill: 21°   Ceiling: 1400
Heat Index: 30°   Visibility: 10mi
Dew Point: 25°   Wind: 12mph
Humidity: 80%   Direction: 320°NW
Pressure: 30.29"   Gusts: NA
Location:  38.3773°N, 86.3787°W
Report Text: KHNB 271155Z AUTO 32010KT 10SM OVC014 M01/M04 A3029 RMK AO1 10010 21010 52034
Loading
Personal Weather Stations






























Interactive Weather Map New forecast layout! Learn more

10-Day Weather Forecast

Advertisements
Track Severe Weather on mobile